»·PEaware :: WAT202 KLAS-KSAN

WAT202 :: KLAS-KSAN

FLIGHT INFORMATION

Flight Status: Arrived
Operator:
Walker Air Transport
More flights by this operator :: More flights under this callsign
Pilot: Nick L. (7253)
Aircraft: BOEING 737-800
(B738)
More flights by this aircraft type
Origin: KLAS McCarran Intl
United States
Destination: KSAN San Diego Intl-Lindbergh
United States
More flights between these airports :: More routes between these airports
Route: +BOACH8 LVELL LUCKI1
File this flight plan on PilotEdge
Remarks: RMK / SIMBRIEF
Altitude:
(Current/Filed)
30,000ft
Speed:
(Current/Filed)
442kts
Departed: 03-May-20 09:36 AM
Arrived: 03-May-20 10:21 AM
Distance/Time
Traveled:
225nm/0:45
Distance/Time
To Go:
Arrived

Flight Plot

Page will automatically refresh every two minutes.

Flight plan parsing failed; only flown route is shown


Map Options




Map Legend


Flown Route
Filed Route
Departure Airport
Arrival Airport
Navaid (VOR, NDB)
Fix

Horizontal Profiles

Position Reports

Time Latitude Longitude Heading Altitude Ground
Speed
03-May-20 08:55 36.082220 -115.151063 12 2152ft 0kts
03-May-20 08:56 36.082220 -115.151063 12 2152ft 0kts
03-May-20 08:57 36.082220 -115.151063 12 2152ft 0kts
03-May-20 08:58 36.082220 -115.151063 12 2152ft 0kts
03-May-20 08:59 36.082220 -115.151063 12 2152ft 0kts
03-May-20 09:00 36.082220 -115.151063 12 2152ft 0kts
03-May-20 09:01 36.082220 -115.151063 12 2152ft 0kts
03-May-20 09:02 36.082220 -115.151063 12 2152ft 0kts
03-May-20 09:03 36.082220 -115.151063 12 2152ft 0kts
03-May-20 09:04 36.082220 -115.151063 12 2152ft 0kts
03-May-20 09:05 36.082220 -115.151063 12 2152ft 0kts
03-May-20 09:06 36.082220 -115.151063 12 2152ft 0kts
03-May-20 09:07 36.082220 -115.151063 12 2152ft 0kts
03-May-20 09:08 36.082220 -115.151063 12 2152ft 0kts
03-May-20 09:09 36.082220 -115.151063 12 2152ft 0kts
03-May-20 09:10 36.082220 -115.151063 12 2152ft 0kts
03-May-20 09:11 36.082220 -115.151063 12 2152ft 0kts
03-May-20 09:12 36.082220 -115.151063 12 2152ft 0kts
03-May-20 09:13 36.082220 -115.151063 12 2152ft 0kts
03-May-20 09:14 36.082220 -115.151063 12 2152ft 0kts
03-May-20 09:15 36.082220 -115.151063 12 2152ft 0kts
03-May-20 09:16 36.082220 -115.151063 12 2152ft 0kts
03-May-20 09:17 36.082220 -115.151063 12 2152ft 0kts
03-May-20 09:18 36.082220 -115.151063 12 2152ft 0kts
03-May-20 09:19 36.082220 -115.151063 12 2152ft 0kts
03-May-20 09:20 36.082014 -115.151116 13 2152ft 2kts
03-May-20 09:21 36.081423 -115.151285 12 2152ft 2kts
03-May-20 09:22 36.081089 -115.151379 12 2152ft 0kts
03-May-20 09:23 36.081089 -115.151379 12 2152ft 0kts
03-May-20 09:24 36.081089 -115.151378 12 2151ft 0kts
03-May-20 09:25 36.081118 -115.151357 34 2152ft 1kts
03-May-20 09:26 36.078897 -115.148171 159 2152ft 14kts
03-May-20 09:27 36.078325 -115.144351 94 2152ft 10kts
03-May-20 09:28 36.078233 -115.139997 90 2151ft 13kts
03-May-20 09:29 36.078242 -115.134518 90 2152ft 18kts
03-May-20 09:30 36.078253 -115.127894 89 2152ft 21kts
03-May-20 09:31 36.077891 -115.122194 128 2152ft 0kts
03-May-20 09:32 36.077846 -115.122125 128 2152ft 1kts
03-May-20 09:33 36.077014 -115.121334 177 2152ft 8kts
03-May-20 09:34 36.076443 -115.121410 257 2151ft 0kts
03-May-20 09:35 36.076417 -115.123679 269 2152ft 60kts
03-May-20 09:36 36.076420 -115.176702 270 3546ft 187kts
03-May-20 09:37 36.065536 -115.245411 234 5862ft 241kts
03-May-20 09:38 36.002366 -115.287442 201 7011ft 265kts
03-May-20 09:39 35.928819 -115.306857 187 9890ft 279kts
03-May-20 09:41 35.847257 -115.313807 179 11418ft 348kts
03-May-20 09:42 35.747369 -115.302612 177 14100ft 369kts
03-May-20 09:43 35.643566 -115.295579 185 16719ft 379kts
03-May-20 09:44 35.536508 -115.300260 186 18941ft 395kts
03-May-20 09:45 35.425550 -115.304687 187 21115ft 403kts
03-May-20 09:46 35.311881 -115.309197 187 23013ft 415kts
03-May-20 09:47 35.194552 -115.313831 187 24691ft 426kts
03-May-20 09:48 35.074099 -115.318567 188 26189ft 438kts
03-May-20 09:49 34.951032 -115.323403 187 27396ft 451kts
03-May-20 09:50 34.824695 -115.333311 193 28611ft 456kts
03-May-20 09:51 34.703383 -115.370244 201 29973ft 450kts
03-May-20 09:52 34.583472 -115.418903 203 30082ft 458kts
03-May-20 09:53 34.463805 -115.470128 203 30123ft 456kts
03-May-20 09:54 34.345159 -115.525099 210 30124ft 453kts
03-May-20 09:55 34.234958 -115.597122 207 30126ft 454kts
03-May-20 09:55 34.138111 -115.646829 206 30122ft 455kts
03-May-20 09:57 34.007683 -115.710025 205 30070ft 440kts
03-May-20 09:58 33.895054 -115.763691 206 29965ft 428kts
03-May-20 09:58 33.805655 -115.807648 206 29960ft 398kts
03-May-20 10:00 33.683617 -115.865885 205 28905ft 410kts
03-May-20 10:01 33.578239 -115.915072 205 27381ft 408kts
03-May-20 10:01 33.504035 -115.979430 230 25918ft 391kts
03-May-20 10:02 33.436120 -116.083545 236 24897ft 389kts
03-May-20 10:04 33.363137 -116.206574 235 23115ft 386kts
03-May-20 10:04 33.294903 -116.274631 211 20871ft 385kts
03-May-20 10:05 33.200796 -116.330210 209 18538ft 368kts
03-May-20 10:07 33.096206 -116.391348 209 15913ft 352kts
03-May-20 10:07 33.023480 -116.433803 209 14078ft 343kts
03-May-20 10:08 32.948148 -116.501887 223 11965ft 333kts
03-May-20 10:09 32.880318 -116.570567 222 10570ft 308kts
03-May-20 10:10 32.819030 -116.632222 223 10005ft 262kts
03-May-20 10:11 32.769648 -116.687799 237 8938ft 240kts
03-May-20 10:12 32.735666 -116.758616 242 7084ft 242kts
03-May-20 10:13 32.704644 -116.826606 249 5864ft 225kts
03-May-20 10:14 32.684110 -116.893515 252 5004ft 204kts
03-May-20 10:15 32.679093 -116.959447 283 3829ft 194kts
03-May-20 10:16 32.692007 -117.017946 287 3088ft 181kts
03-May-20 10:17 32.705402 -117.071932 285 2064ft 152kts
03-May-20 10:18 32.716932 -117.120454 284 1119ft 150kts
03-May-20 10:19 32.728403 -117.168241 284 339ft 151kts
03-May-20 10:20 32.736014 -117.199874 286 28ft 34kts
03-May-20 10:21 32.735640 -117.202100 192 28ft 1kts
03-May-20 10:22 32.734999 -117.200571 138 28ft 18kts
03-May-20 10:23 32.734159 -117.200773 209 28ft 0kts

Navigation Log

Ident Type
Flight plan parsing failed, navigation log unavailable